sensor_id;sensor_type;location;lat;lon;timestamp;temperature;humidity
22984;DHT22;11658;48.908;9.140;2022-09-14T03:01:27;17.40;99.90
22984;DHT22;11658;48.908;9.140;2022-09-14T03:03:52;17.30;99.90
22984;DHT22;11658;48.908;9.140;2022-09-14T03:06:18;17.40;99.90
22984;DHT22;11658;48.908;9.140;2022-09-14T03:08:44;17.40;99.90
22984;DHT22;11658;48.908;9.140;2022-09-14T03:11:09;17.40;99.90
22984;DHT22;11658;48.908;9.140;2022-09-14T03:13:35;17.40;99.90
22984;DHT22;11658;48.908;9.140;2022-09-14T03:16:10;17.40;99.90
22984;DHT22;11658;48.908;9.140;2022-09-14T03:18:37;17.40;99.90
22984;DHT22;11658;48.908;9.140;2022-09-14T03:21:07;17.40;99.90
22984;DHT22;11658;48.908;9.140;2022-09-14T03:23:38;17.50;99.90
22984;DHT22;11658;48.908;9.140;2022-09-14T03:26:09;17.50;99.90
22984;DHT22;11658;48.908;9.140;2022-09-14T03:28:35;17.50;99.90
22984;DHT22;11658;48.908;9.140;2022-09-14T03:31:02;17.50;99.90
22984;DHT22;11658;48.908;9.140;2022-09-14T03:33:28;17.50;99.90
22984;DHT22;11658;48.908;9.140;2022-09-14T03:35:54;17.50;99.90
22984;DHT22;11658;48.908;9.140;2022-09-14T03:38:19;17.60;99.90
22984;DHT22;11658;48.908;9.140;2022-09-14T03:40:45;17.60;99.90
22984;DHT22;11658;48.908;9.140;2022-09-14T03:43:13;17.40;99.90
22984;DHT22;11658;48.908;9.140;2022-09-14T03:45:38;17.50;99.90
22984;DHT22;11658;48.908;9.140;2022-09-14T03:48:04;17.50;99.90
22984;DHT22;11658;48.908;9.140;2022-09-14T03:50:30;17.40;99.90
22984;DHT22;11658;48.908;9.140;2022-09-14T03:52:56;17.50;99.90
22984;DHT22;11658;48.908;9.140;2022-09-14T03:55:22;17.50;99.90
22984;DHT22;11658;48.908;9.140;2022-09-14T03:57:47;17.50;99.90
22984;DHT22;11658;48.908;9.140;2022-09-14T04:00:14;17.50;99.90
22984;DHT22;11658;48.908;9.140;2022-09-14T04:02:39;17.40;99.90
22984;DHT22;11658;48.908;9.140;2022-09-14T04:05:05;17.40;99.90
22984;DHT22;11658;48.908;9.140;2022-09-14T04:07:31;17.40;99.90
22984;DHT22;11658;48.908;9.140;2022-09-14T04:09:57;17.30;99.90
22984;DHT22;11658;48.908;9.140;2022-09-14T04:12:23;17.40;99.90
22984;DHT22;11658;48.908;9.140;2022-09-14T04:14:48;17.50;99.90
22984;DHT22;11658;48.908;9.140;2022-09-14T04:17:14;17.40;99.90
22984;DHT22;11658;48.908;9.140;2022-09-14T04:19:41;17.50;99.90
22984;DHT22;11658;48.908;9.140;2022-09-14T04:22:07;17.50;99.90
22984;DHT22;11658;48.908;9.140;2022-09-14T04:24:33;17.60;99.90
22984;DHT22;11658;48.908;9.140;2022-09-14T04:26:58;17.60;99.90
22984;DHT22;11658;48.908;9.140;2022-09-14T04:29:24;17.70;99.90
22984;DHT22;11658;48.908;9.140;2022-09-14T04:31:49;17.80;99.90
22984;DHT22;11658;48.908;9.140;2022-09-14T04:34:15;17.80;99.90
22984;DHT22;11658;48.908;9.140;2022-09-14T04:36:41;17.80;99.90
22984;DHT22;11658;48.908;9.140;2022-09-14T04:39:09;17.80;99.90
22984;DHT22;11658;48.908;9.140;2022-09-14T04:41:35;17.80;99.90
22984;DHT22;11658;48.908;9.140;2022-09-14T04:44:01;17.80;99.90
22984;DHT22;11658;48.908;9.140;2022-09-14T04:46:30;17.80;99.90
22984;DHT22;11658;48.908;9.140;2022-09-14T04:48:56;17.90;99.90
22984;DHT22;11658;48.908;9.140;2022-09-14T04:51:25;17.90;99.90
22984;DHT22;11658;48.908;9.140;2022-09-14T04:53:53;17.90;99.90
22984;DHT22;11658;48.908;9.140;2022-09-14T04:56:21;18.00;99.90
22984;DHT22;11658;48.908;9.140;2022-09-14T04:58:49;18.00;99.90
22984;DHT22;11658;48.908;9.140;2022-09-14T05:01:21;17.90;99.90
22984;DHT22;11658;48.908;9.140;2022-09-14T05:03:47;17.70;99.90
22984;DHT22;11658;48.908;9.140;2022-09-14T05:06:15;17.50;99.90
22984;DHT22;11658;48.908;9.140;2022-09-14T05:08:42;17.50;99.90
22984;DHT22;11658;48.908;9.140;2022-09-14T05:11:12;17.40;99.90
22984;DHT22;11658;48.908;9.140;2022-09-14T05:13:38;17.30;99.90
22984;DHT22;11658;48.908;9.140;2022-09-14T05:16:09;17.30;99.90
22984;DHT22;11658;48.908;9.140;2022-09-14T05:18:35;17.30;99.90
22984;DHT22;11658;48.908;9.140;2022-09-14T05:21:03;17.30;99.90
22984;DHT22;11658;48.908;9.140;2022-09-14T05:23:30;17.30;99.90
22984;DHT22;11658;48.908;9.140;2022-09-14T05:25:56;17.40;99.90
22984;DHT22;11658;48.908;9.140;2022-09-14T05:28:21;17.30;99.90
22984;DHT22;11658;48.908;9.140;2022-09-14T05:30:47;17.40;99.90
22984;DHT22;11658;48.908;9.140;2022-09-14T05:33:12;17.50;99.90
22984;DHT22;11658;48.908;9.140;2022-09-14T05:35:38;17.60;99.90
22984;DHT22;11658;48.908;9.140;2022-09-14T05:38:03;17.70;99.90
22984;DHT22;11658;48.908;9.140;2022-09-14T05:40:29;17.80;99.90
22984;DHT22;11658;48.908;9.140;2022-09-14T05:42:56;17.90;99.90
22984;DHT22;11658;48.908;9.140;2022-09-14T05:45:21;18.00;99.90
22984;DHT22;11658;48.908;9.140;2022-09-14T05:47:47;18.00;99.90
22984;DHT22;11658;48.908;9.140;2022-09-14T05:50:12;18.10;99.90
22984;DHT22;11658;48.908;9.140;2022-09-14T05:52:39;18.20;99.90
22984;DHT22;11658;48.908;9.140;2022-09-14T05:55:05;18.30;99.90
22984;DHT22;11658;48.908;9.140;2022-09-14T05:57:31;18.30;99.90
22984;DHT22;11658;48.908;9.140;2022-09-14T05:59:57;18.30;99.90
22984;DHT22;11658;48.908;9.140;2022-09-14T06:02:23;18.30;99.90
22984;DHT22;11658;48.908;9.140;2022-09-14T06:04:48;18.40;99.90
22984;DHT22;11658;48.908;9.140;2022-09-14T06:07:14;18.40;99.90
22984;DHT22;11658;48.908;9.140;2022-09-14T06:09:40;18.40;99.90
22984;DHT22;11658;48.908;9.140;2022-09-14T06:12:05;18.40;99.90
22984;DHT22;11658;48.908;9.140;2022-09-14T06:14:31;18.50;99.90
22984;DHT22;11658;48.908;9.140;2022-09-14T06:16:56;18.40;99.90
22984;DHT22;11658;48.908;9.140;2022-09-14T06:19:22;18.50;99.90
22984;DHT22;11658;48.908;9.140;2022-09-14T06:21:48;18.50;99.90
22984;DHT22;11658;48.908;9.140;2022-09-14T06:24:13;18.50;99.90
22984;DHT22;11658;48.908;9.140;2022-09-14T06:26:39;18.50;99.90
22984;DHT22;11658;48.908;9.140;2022-09-14T06:29:05;18.60;99.90
22984;DHT22;11658;48.908;9.140;2022-09-14T06:31:31;18.70;99.90
22984;DHT22;11658;48.908;9.140;2022-09-14T06:33:56;18.80;99.90
22984;DHT22;11658;48.908;9.140;2022-09-14T06:36:24;18.80;99.90
22984;DHT22;11658;48.908;9.140;2022-09-14T06:38:50;18.90;99.90
22984;DHT22;11658;48.908;9.140;2022-09-14T06:41:18;18.90;99.90
22984;DHT22;11658;48.908;9.140;2022-09-14T06:43:45;19.00;99.90
22984;DHT22;11658;48.908;9.140;2022-09-14T06:46:18;19.00;99.90
22984;DHT22;11658;48.908;9.140;2022-09-14T06:48:46;19.10;99.90
22984;DHT22;11658;48.908;9.140;2022-09-14T06:53:43;19.20;99.90
22984;DHT22;11658;48.908;9.140;2022-09-14T06:56:09;19.30;99.90
22984;DHT22;11658;48.908;9.140;2022-09-14T06:58:36;19.40;99.90
22984;DHT22;11658;48.908;9.140;2022-09-14T07:01:12;19.50;99.90
22984;DHT22;11658;48.908;9.140;2022-09-14T07:03:39;19.50;99.90
22984;DHT22;11658;48.908;9.140;2022-09-14T07:06:11;19.70;99.90
22984;DHT22;11658;48.908;9.140;2022-09-14T07:08:38;19.80;99.90
22984;DHT22;11658;48.908;9.140;2022-09-14T07:11:05;20.00;99.90
22984;DHT22;11658;48.908;9.140;2022-09-14T07:13:31;20.10;99.90
22984;DHT22;11658;48.908;9.140;2022-09-14T07:15:57;20.30;99.90
22984;DHT22;11658;48.908;9.140;2022-09-14T07:18:24;20.50;99.90
22984;DHT22;11658;48.908;9.140;2022-09-14T07:21:03;20.60;99.90
22984;DHT22;11658;48.908;9.140;2022-09-14T07:23:29;20.60;99.90
22984;DHT22;11658;48.908;9.140;2022-09-14T07:26:04;20.60;99.90
22984;DHT22;11658;48.908;9.140;2022-09-14T07:28:30;20.70;99.90
22984;DHT22;11658;48.908;9.140;2022-09-14T07:30:56;20.70;99.90
22984;DHT22;11658;48.908;9.140;2022-09-14T07:33:22;20.70;99.90
22984;DHT22;11658;48.908;9.140;2022-09-14T07:35:48;20.80;99.90
22984;DHT22;11658;48.908;9.140;2022-09-14T07:38:13;20.90;99.90
22984;DHT22;11658;48.908;9.140;2022-09-14T07:40:39;21.10;99.90
22984;DHT22;11658;48.908;9.140;2022-09-14T07:43:04;21.20;99.90
22984;DHT22;11658;48.908;9.140;2022-09-14T07:45:31;21.30;99.90
22984;DHT22;11658;48.908;9.140;2022-09-14T07:47:56;21.30;99.90
22984;DHT22;11658;48.908;9.140;2022-09-14T07:50:22;21.30;99.90
22984;DHT22;11658;48.908;9.140;2022-09-14T07:52:50;21.20;99.90
22984;DHT22;11658;48.908;9.140;2022-09-14T07:55:16;21.30;99.90
22984;DHT22;11658;48.908;9.140;2022-09-14T07:57:42;21.40;99.90
22984;DHT22;11658;48.908;9.140;2022-09-14T08:00:09;21.40;99.90
22984;DHT22;11658;48.908;9.140;2022-09-14T08:02:35;21.50;99.90
22984;DHT22;11658;48.908;9.140;2022-09-14T08:05:01;21.50;99.90
22984;DHT22;11658;48.908;9.140;2022-09-14T08:07:26;21.70;99.90
22984;DHT22;11658;48.908;9.140;2022-09-14T08:09:52;21.80;99.90
22984;DHT22;11658;48.908;9.140;2022-09-14T08:12:18;22.00;99.90
22984;DHT22;11658;48.908;9.140;2022-09-14T08:14:43;22.10;99.90
22984;DHT22;11658;48.908;9.140;2022-09-14T08:17:09;22.20;99.90
22984;DHT22;11658;48.908;9.140;2022-09-14T08:19:35;22.30;99.90
22984;DHT22;11658;48.908;9.140;2022-09-14T08:22:02;22.30;99.90
22984;DHT22;11658;48.908;9.140;2022-09-14T08:24:29;22.20;99.90
22984;DHT22;11658;48.908;9.140;2022-09-14T08:26:54;22.20;99.90
22984;DHT22;11658;48.908;9.140;2022-09-14T08:29:20;22.30;99.90
22984;DHT22;11658;48.908;9.140;2022-09-14T08:31:46;22.30;99.90
22984;DHT22;11658;48.908;9.140;2022-09-14T08:34:13;22.50;99.90
22984;DHT22;11658;48.908;9.140;2022-09-14T08:36:40;22.70;99.90
22984;DHT22;11658;48.908;9.140;2022-09-14T08:39:07;22.90;99.90
22984;DHT22;11658;48.908;9.140;2022-09-14T08:46:47;22.80;99.90
22984;DHT22;11658;48.908;9.140;2022-09-14T08:52:11;23.10;99.90
22984;DHT22;11658;48.908;9.140;2022-09-14T08:54:37;23.40;99.90
22984;DHT22;11658;48.908;9.140;2022-09-14T09:11:16;24.10;99.90
22984;DHT22;11658;48.908;9.140;2022-09-14T09:13:44;24.20;99.90
22984;DHT22;11658;48.908;9.140;2022-09-14T09:16:16;24.30;99.90
22984;DHT22;11658;48.908;9.140;2022-09-14T09:18:53;24.10;99.90
22984;DHT22;11658;48.908;9.140;2022-09-14T09:21:38;24.10;99.90
22984;DHT22;11658;48.908;9.140;2022-09-14T09:26:47;24.20;99.90
22984;DHT22;11658;48.908;9.140;2022-09-14T09:29:12;24.20;99.90
22984;DHT22;11658;48.908;9.140;2022-09-14T09:31:41;24.00;99.90
22984;DHT22;11658;48.908;9.140;2022-09-14T09:34:14;23.90;99.90
22984;DHT22;11658;48.908;9.140;2022-09-14T09:36:44;23.80;99.90
22984;DHT22;11658;48.908;9.140;2022-09-14T09:39:11;23.90;99.90
22984;DHT22;11658;48.908;9.140;2022-09-14T09:44:14;23.90;99.90
22984;DHT22;11658;48.908;9.140;2022-09-14T09:47:00;24.10;99.90
22984;DHT22;11658;48.908;9.140;2022-09-14T09:49:31;24.30;99.90
22984;DHT22;11658;48.908;9.140;2022-09-14T09:52:10;24.20;99.90
22984;DHT22;11658;48.908;9.140;2022-09-14T09:54:38;24.30;99.90
22984;DHT22;11658;48.908;9.140;2022-09-14T09:57:17;24.40;99.90
22984;DHT22;11658;48.908;9.140;2022-09-14T09:59:43;24.70;99.90
22984;DHT22;11658;48.908;9.140;2022-09-14T10:02:27;25.00;99.90
22984;DHT22;11658;48.908;9.140;2022-09-14T10:08:03;25.60;99.90
22984;DHT22;11658;48.908;9.140;2022-09-14T10:12:59;25.70;99.90
22984;DHT22;11658;48.908;9.140;2022-09-14T10:15:29;25.50;99.90
22984;DHT22;11658;48.908;9.140;2022-09-14T10:20:38;25.40;99.90
22984;DHT22;11658;48.908;9.140;2022-09-14T10:25:42;25.10;99.90
22984;DHT22;11658;48.908;9.140;2022-09-14T10:28:26;25.00;99.90
22984;DHT22;11658;48.908;9.140;2022-09-14T10:31:01;25.00;99.90
22984;DHT22;11658;48.908;9.140;2022-09-14T10:33:29;25.00;99.90
22984;DHT22;11658;48.908;9.140;2022-09-14T10:36:23;25.00;99.90
22984;DHT22;11658;48.908;9.140;2022-09-14T10:38:52;25.30;99.90
22984;DHT22;11658;48.908;9.140;2022-09-14T10:41:43;25.10;99.90
22984;DHT22;11658;48.908;9.140;2022-09-14T10:49:35;25.80;99.90
22984;DHT22;11658;48.908;9.140;2022-09-14T11:05:37;26.50;99.90
22984;DHT22;11658;48.908;9.140;2022-09-14T11:13:30;26.30;99.90
22984;DHT22;11658;48.908;9.140;2022-09-14T11:24:10;26.70;99.90
22984;DHT22;11658;48.908;9.140;2022-09-14T11:26:42;26.90;99.90
22984;DHT22;11658;48.908;9.140;2022-09-14T11:29:30;26.90;99.90
22984;DHT22;11658;48.908;9.140;2022-09-14T11:32:14;26.70;99.90
22984;DHT22;11658;48.908;9.140;2022-09-14T11:34:44;26.20;99.90
22984;DHT22;11658;48.908;9.140;2022-09-14T11:37:14;26.20;99.90
22984;DHT22;11658;48.908;9.140;2022-09-14T11:39:57;26.30;99.90
22984;DHT22;11658;48.908;9.140;2022-09-14T11:42:34;26.20;99.90
22984;DHT22;11658;48.908;9.140;2022-09-14T11:45:28;26.20;99.90
22984;DHT22;11658;48.908;9.140;2022-09-14T11:48:01;26.30;99.90
22984;DHT22;11658;48.908;9.140;2022-09-14T11:50:31;26.40;99.90
22984;DHT22;11658;48.908;9.140;2022-09-14T11:53:10;26.50;99.90
22984;DHT22;11658;48.908;9.140;2022-09-14T11:55:36;26.60;99.90
22984;DHT22;11658;48.908;9.140;2022-09-14T11:58:07;26.80;99.90
22984;DHT22;11658;48.908;9.140;2022-09-14T12:00:43;26.60;99.90
22984;DHT22;11658;48.908;9.140;2022-09-14T12:03:18;26.60;99.90
22984;DHT22;11658;48.908;9.140;2022-09-14T12:05:46;26.70;99.90
22984;DHT22;11658;48.908;9.140;2022-09-14T12:13:34;26.30;99.90
22984;DHT22;11658;48.908;9.140;2022-09-14T12:16:05;26.40;99.90
22984;DHT22;11658;48.908;9.140;2022-09-14T12:18:34;26.40;99.90
22984;DHT22;11658;48.908;9.140;2022-09-14T12:36:09;25.40;99.90
22984;DHT22;11658;48.908;9.140;2022-09-14T12:58:57;24.30;99.90
22984;DHT22;11658;48.908;9.140;2022-09-14T13:04:03;23.60;99.90
22984;DHT22;11658;48.908;9.140;2022-09-14T13:06:49;23.30;99.90
22984;DHT22;11658;48.908;9.140;2022-09-14T13:09:24;22.90;99.90
22984;DHT22;11658;48.908;9.140;2022-09-14T13:12:03;22.50;99.90
22984;DHT22;11658;48.908;9.140;2022-09-14T13:14:33;21.90;99.90
22984;DHT22;11658;48.908;9.140;2022-09-14T13:17:01;21.40;99.90
22984;DHT22;11658;48.908;9.140;2022-09-14T13:19:29;21.00;99.90
22984;DHT22;11658;48.908;9.140;2022-09-14T13:21:57;20.70;99.90
22984;DHT22;11658;48.908;9.140;2022-09-14T13:32:27;20.10;99.90
22984;DHT22;11658;48.908;9.140;2022-09-14T13:34:53;20.00;99.90
22984;DHT22;11658;48.908;9.140;2022-09-14T13:37:20;20.00;99.90
22984;DHT22;11658;48.908;9.140;2022-09-14T13:39:54;19.80;99.90
22984;DHT22;11658;48.908;9.140;2022-09-14T13:42:20;19.70;99.90
22984;DHT22;11658;48.908;9.140;2022-09-14T13:44:47;19.70;99.90
22984;DHT22;11658;48.908;9.140;2022-09-14T13:47:23;19.60;99.90
22984;DHT22;11658;48.908;9.140;2022-09-14T13:49:52;19.60;99.90
22984;DHT22;11658;48.908;9.140;2022-09-14T13:54:46;19.50;99.90
22984;DHT22;11658;48.908;9.140;2022-09-14T14:02:31;19.50;99.90
22984;DHT22;11658;48.908;9.140;2022-09-14T14:04:57;19.50;99.90
22984;DHT22;11658;48.908;9.140;2022-09-14T14:07:30;19.50;99.90
22984;DHT22;11658;48.908;9.140;2022-09-14T14:09:57;19.50;99.90
22984;DHT22;11658;48.908;9.140;2022-09-14T14:15:01;19.60;99.90
22984;DHT22;11658;48.908;9.140;2022-09-14T14:19:55;19.80;99.90
22984;DHT22;11658;48.908;9.140;2022-09-14T14:22:30;19.90;99.90
22984;DHT22;11658;48.908;9.140;2022-09-14T14:24:56;19.90;99.90
22984;DHT22;11658;48.908;9.140;2022-09-14T14:27:31;19.90;99.90
22984;DHT22;11658;48.908;9.140;2022-09-14T14:29:58;19.90;99.90
22984;DHT22;11658;48.908;9.140;2022-09-14T14:32:24;20.00;99.90
22984;DHT22;11658;48.908;9.140;2022-09-14T14:34:50;20.10;99.90
22984;DHT22;11658;48.908;9.140;2022-09-14T14:37:18;20.20;99.90
22984;DHT22;11658;48.908;9.140;2022-09-14T14:39:47;20.20;99.90
22984;DHT22;11658;48.908;9.140;2022-09-14T14:42:15;20.30;99.90
22984;DHT22;11658;48.908;9.140;2022-09-14T14:44:41;20.30;99.90
22984;DHT22;11658;48.908;9.140;2022-09-14T14:47:11;20.20;99.90
22984;DHT22;11658;48.908;9.140;2022-09-14T14:49:36;20.20;99.90
22984;DHT22;11658;48.908;9.140;2022-09-14T14:52:02;20.20;99.90
22984;DHT22;11658;48.908;9.140;2022-09-14T14:54:28;20.10;99.90
22984;DHT22;11658;48.908;9.140;2022-09-14T14:56:56;19.80;99.90
22984;DHT22;11658;48.908;9.140;2022-09-14T15:01:48;20.50;99.90
22984;DHT22;11658;48.908;9.140;2022-09-14T15:04:14;19.90;99.90
22984;DHT22;11658;48.908;9.140;2022-09-14T15:06:39;19.90;99.90
22984;DHT22;11658;48.908;9.140;2022-09-14T15:09:08;20.00;99.90
22984;DHT22;11658;48.908;9.140;2022-09-14T15:11:38;20.00;99.90
22984;DHT22;11658;48.908;9.140;2022-09-14T15:14:08;20.10;99.90
22984;DHT22;11658;48.908;9.140;2022-09-14T15:16:35;20.10;99.90
22984;DHT22;11658;48.908;9.140;2022-09-14T15:19:00;20.10;99.90
22984;DHT22;11658;48.908;9.140;2022-09-14T15:21:29;20.10;99.90
22984;DHT22;11658;48.908;9.140;2022-09-14T15:23:55;20.20;99.90
22984;DHT22;11658;48.908;9.140;2022-09-14T15:26:20;20.20;99.90
22984;DHT22;11658;48.908;9.140;2022-09-14T15:28:46;20.20;99.90
22984;DHT22;11658;48.908;9.140;2022-09-14T15:31:13;20.20;99.90
22984;DHT22;11658;48.908;9.140;2022-09-14T15:33:38;20.20;99.90
22984;DHT22;11658;48.908;9.140;2022-09-14T15:36:04;20.20;99.90
22984;DHT22;11658;48.908;9.140;2022-09-14T15:38:30;20.10;99.90
22984;DHT22;11658;48.908;9.140;2022-09-14T15:40:55;20.10;99.90
22984;DHT22;11658;48.908;9.140;2022-09-14T15:43:21;20.20;99.90
22984;DHT22;11658;48.908;9.140;2022-09-14T15:45:47;20.50;99.90
22984;DHT22;11658;48.908;9.140;2022-09-14T15:48:13;20.70;99.90
22984;DHT22;11658;48.908;9.140;2022-09-14T15:50:41;20.70;99.90
22984;DHT22;11658;48.908;9.140;2022-09-14T15:53:08;20.70;99.90
22984;DHT22;11658;48.908;9.140;2022-09-14T15:55:34;20.60;99.90
22984;DHT22;11658;48.908;9.140;2022-09-14T15:58:02;20.60;99.90
22984;DHT22;11658;48.908;9.140;2022-09-14T16:00:30;20.80;99.90
22984;DHT22;11658;48.908;9.140;2022-09-14T16:02:56;20.80;99.90
22984;DHT22;11658;48.908;9.140;2022-09-14T16:05:21;20.90;99.90
22984;DHT22;11658;48.908;9.140;2022-09-14T16:07:47;20.80;99.90
22984;DHT22;11658;48.908;9.140;2022-09-14T16:10:13;20.70;99.90
22984;DHT22;11658;48.908;9.140;2022-09-14T16:12:39;20.60;99.90
22984;DHT22;11658;48.908;9.140;2022-09-14T16:15:05;20.50;99.90
22984;DHT22;11658;48.908;9.140;2022-09-14T16:17:31;20.50;99.90
22984;DHT22;11658;48.908;9.140;2022-09-14T16:19:56;20.60;99.90
22984;DHT22;11658;48.908;9.140;2022-09-14T16:22:22;20.50;99.90
22984;DHT22;11658;48.908;9.140;2022-09-14T16:24:48;20.40;99.90
22984;DHT22;11658;48.908;9.140;2022-09-14T16:27:13;20.30;99.90
22984;DHT22;11658;48.908;9.140;2022-09-14T16:29:39;20.20;99.90
22984;DHT22;11658;48.908;9.140;2022-09-14T16:32:05;20.10;99.90
22984;DHT22;11658;48.908;9.140;2022-09-14T16:34:30;20.10;99.90
22984;DHT22;11658;48.908;9.140;2022-09-14T16:36:56;20.00;99.90
22984;DHT22;11658;48.908;9.140;2022-09-14T16:39:25;20.10;99.90
22984;DHT22;11658;48.908;9.140;2022-09-14T16:41:52;20.00;99.90
22984;DHT22;11658;48.908;9.140;2022-09-14T16:44:23;20.10;99.90
22984;DHT22;11658;48.908;9.140;2022-09-14T16:46:51;20.00;99.90
22984;DHT22;11658;48.908;9.140;2022-09-14T16:49:17;20.00;99.90
22984;DHT22;11658;48.908;9.140;2022-09-14T16:51:43;20.00;99.90
22984;DHT22;11658;48.908;9.140;2022-09-14T16:54:16;20.10;99.90
22984;DHT22;11658;48.908;9.140;2022-09-14T16:56:43;20.00;99.90
22984;DHT22;11658;48.908;9.140;2022-09-14T16:59:12;20.00;99.90
22984;DHT22;11658;48.908;9.140;2022-09-14T17:01:43;19.90;99.90
22984;DHT22;11658;48.908;9.140;2022-09-14T17:04:14;19.90;99.90
22984;DHT22;11658;48.908;9.140;2022-09-14T17:06:42;19.80;99.90
22984;DHT22;11658;48.908;9.140;2022-09-14T17:09:22;19.80;99.90
22984;DHT22;11658;48.908;9.140;2022-09-14T17:11:48;19.90;99.90
22984;DHT22;11658;48.908;9.140;2022-09-14T17:14:17;19.90;99.90
22984;DHT22;11658;48.908;9.140;2022-09-14T17:16:43;19.90;99.90
22984;DHT22;11658;48.908;9.140;2022-09-14T17:19:10;19.90;99.90
22984;DHT22;11658;48.908;9.140;2022-09-14T17:21:37;19.80;99.90
22984;DHT22;11658;48.908;9.140;2022-09-14T17:24:04;19.80;99.90
22984;DHT22;11658;48.908;9.140;2022-09-14T17:26:33;19.70;99.90
22984;DHT22;11658;48.908;9.140;2022-09-14T17:29:00;19.70;99.90
22984;DHT22;11658;48.908;9.140;2022-09-14T17:31:34;19.60;99.90
22984;DHT22;11658;48.908;9.140;2022-09-14T17:34:01;19.60;99.90
22984;DHT22;11658;48.908;9.140;2022-09-14T17:36:28;19.50;99.90
22984;DHT22;11658;48.908;9.140;2022-09-14T17:38:57;19.60;99.90
22984;DHT22;11658;48.908;9.140;2022-09-14T17:41:28;19.50;99.90
22984;DHT22;11658;48.908;9.140;2022-09-14T17:44:00;19.60;99.90
22984;DHT22;11658;48.908;9.140;2022-09-14T17:46:26;19.50;99.90
22984;DHT22;11658;48.908;9.140;2022-09-14T17:48:54;19.50;99.90
22984;DHT22;11658;48.908;9.140;2022-09-14T17:51:22;19.40;99.90
22984;DHT22;11658;48.908;9.140;2022-09-14T17:53:50;19.40;99.90
22984;DHT22;11658;48.908;9.140;2022-09-14T17:56:19;19.40;99.90
22984;DHT22;11658;48.908;9.140;2022-09-14T17:58:45;19.30;99.90
22984;DHT22;11658;48.908;9.140;2022-09-14T18:01:14;19.30;99.90
22984;DHT22;11658;48.908;9.140;2022-09-14T18:03:41;19.30;99.90
22984;DHT22;11658;48.908;9.140;2022-09-14T18:06:09;19.30;99.90
22984;DHT22;11658;48.908;9.140;2022-09-14T18:08:35;19.20;99.90
22984;DHT22;11658;48.908;9.140;2022-09-14T18:11:06;19.10;99.90
22984;DHT22;11658;48.908;9.140;2022-09-14T18:13:32;19.10;99.90
22984;DHT22;11658;48.908;9.140;2022-09-14T18:15:58;19.10;99.90
22984;DHT22;11658;48.908;9.140;2022-09-14T18:18:24;19.10;99.90
22984;DHT22;11658;48.908;9.140;2022-09-14T18:20:49;19.10;99.90
22984;DHT22;11658;48.908;9.140;2022-09-14T18:23:16;19.20;99.90
22984;DHT22;11658;48.908;9.140;2022-09-14T18:25:42;19.20;99.90
22984;DHT22;11658;48.908;9.140;2022-09-14T18:28:08;19.20;99.90
22984;DHT22;11658;48.908;9.140;2022-09-14T18:30:33;19.30;99.90
22984;DHT22;11658;48.908;9.140;2022-09-14T18:32:59;19.30;99.90
22984;DHT22;11658;48.908;9.140;2022-09-14T18:35:25;19.30;99.90
22984;DHT22;11658;48.908;9.140;2022-09-14T18:37:50;19.30;99.90
22984;DHT22;11658;48.908;9.140;2022-09-14T18:40:16;19.30;99.90
22984;DHT22;11658;48.908;9.140;2022-09-14T18:42:44;19.40;99.90
22984;DHT22;11658;48.908;9.140;2022-09-14T18:45:11;19.40;99.90
22984;DHT22;11658;48.908;9.140;2022-09-14T18:47:36;19.40;99.90
22984;DHT22;11658;48.908;9.140;2022-09-14T18:50:02;19.50;99.90
22984;DHT22;11658;48.908;9.140;2022-09-14T18:52:32;19.50;99.90
22984;DHT22;11658;48.908;9.140;2022-09-14T18:54:58;19.50;99.90
22984;DHT22;11658;48.908;9.140;2022-09-14T18:57:23;19.60;99.90
22984;DHT22;11658;48.908;9.140;2022-09-14T18:59:49;19.60;99.90
22984;DHT22;11658;48.908;9.140;2022-09-14T19:02:14;19.60;99.90
22984;DHT22;11658;48.908;9.140;2022-09-14T19:04:40;19.50;99.90
22984;DHT22;11658;48.908;9.140;2022-09-14T19:07:06;19.60;99.90
22984;DHT22;11658;48.908;9.140;2022-09-14T19:09:31;19.60;99.90
22984;DHT22;11658;48.908;9.140;2022-09-14T19:11:57;19.50;99.90
22984;DHT22;11658;48.908;9.140;2022-09-14T19:14:23;19.50;99.90
22984;DHT22;11658;48.908;9.140;2022-09-14T19:16:49;19.50;99.90
22984;DHT22;11658;48.908;9.140;2022-09-14T19:19:17;19.50;99.90
22984;DHT22;11658;48.908;9.140;2022-09-14T19:21:43;19.40;99.90
22984;DHT22;11658;48.908;9.140;2022-09-14T19:24:12;19.40;99.90
22984;DHT22;11658;48.908;9.140;2022-09-14T19:26:41;19.40;99.90
22984;DHT22;11658;48.908;9.140;2022-09-14T19:29:07;19.30;99.90
22984;DHT22;11658;48.908;9.140;2022-09-14T19:31:34;19.20;99.90
22984;DHT22;11658;48.908;9.140;2022-09-14T19:34:01;19.20;99.90
22984;DHT22;11658;48.908;9.140;2022-09-14T19:36:27;19.20;99.90
22984;DHT22;11658;48.908;9.140;2022-09-14T19:38:54;19.10;99.90
22984;DHT22;11658;48.908;9.140;2022-09-14T19:41:22;19.00;99.90
22984;DHT22;11658;48.908;9.140;2022-09-14T19:43:48;18.90;99.90
22984;DHT22;11658;48.908;9.140;2022-09-14T19:46:20;18.80;99.90
22984;DHT22;11658;48.908;9.140;2022-09-14T19:48:48;18.70;99.90
22984;DHT22;11658;48.908;9.140;2022-09-14T19:51:19;18.60;99.90
22984;DHT22;11658;48.908;9.140;2022-09-14T19:53:48;18.50;99.90
22984;DHT22;11658;48.908;9.140;2022-09-14T19:56:16;18.50;99.90
22984;DHT22;11658;48.908;9.140;2022-09-14T19:58:47;18.50;99.90
22984;DHT22;11658;48.908;9.140;2022-09-14T20:01:17;18.60;99.90
22984;DHT22;11658;48.908;9.140;2022-09-14T20:03:43;18.60;99.90
22984;DHT22;11658;48.908;9.140;2022-09-14T20:06:16;18.50;99.90
22984;DHT22;11658;48.908;9.140;2022-09-14T20:08:51;18.50;99.90
22984;DHT22;11658;48.908;9.140;2022-09-14T20:11:19;18.50;99.90
22984;DHT22;11658;48.908;9.140;2022-09-14T20:13:45;18.40;99.90
22984;DHT22;11658;48.908;9.140;2022-09-14T20:16:19;18.40;99.90
22984;DHT22;11658;48.908;9.140;2022-09-14T20:18:46;18.40;99.90
22984;DHT22;11658;48.908;9.140;2022-09-14T20:21:18;18.50;99.90
22984;DHT22;11658;48.908;9.140;2022-09-14T20:23:44;18.60;99.90
22984;DHT22;11658;48.908;9.140;2022-09-14T20:26:11;18.60;99.90
22984;DHT22;11658;48.908;9.140;2022-09-14T20:28:38;18.60;99.90
22984;DHT22;11658;48.908;9.140;2022-09-14T20:31:06;18.70;99.90
22984;DHT22;11658;48.908;9.140;2022-09-14T20:33:32;18.80;99.90
22984;DHT22;11658;48.908;9.140;2022-09-14T20:36:06;18.70;99.90
22984;DHT22;11658;48.908;9.140;2022-09-14T20:38:32;18.60;99.90
22984;DHT22;11658;48.908;9.140;2022-09-14T20:41:03;18.60;99.90
22984;DHT22;11658;48.908;9.140;2022-09-14T20:43:31;18.60;99.90
22984;DHT22;11658;48.908;9.140;2022-09-14T20:46:04;18.60;99.90
22984;DHT22;11658;48.908;9.140;2022-09-14T20:48:32;18.60;99.90
22984;DHT22;11658;48.908;9.140;2022-09-14T20:50:58;18.60;99.90
22984;DHT22;11658;48.908;9.140;2022-09-14T20:53:26;18.50;99.90
22984;DHT22;11658;48.908;9.140;2022-09-14T20:55:52;18.60;99.90